Terminal Aerodrome Forecast
Issued by NWS Albany, NY

Current Version | Previous Version | Text Only | Print | Product List | Glossary On
Versions: 1 2 3 4 5 6 7 8 9 10 11 12 13 14 15 16 17 18 19 20 21 22 23 24 25 26 27 28
000 FTUS41 KALY 280500 TAFALB TAF KALB 280535Z 2806/2906 00000KT P6SM VCSH SCT020 OVC070 TEMPO 2806/2810 5SM -SN BR OVC030 FM281000 31003KT P6SM BKN070 FM281400 31008G12KT P6SM BKN040 FM290000 28003KT P6SM BKN035=

USA.gov is the U.S. government's official web portal to all federal, state and local government web resources and services.